aviador You're here:

PMDY Decoded Metar

MIDWAY in MIDWAY ISLAND
Report Time2018-01-22 10:56:00
UTC Time2018-01-22 12:01:17
Flight Rules vfr VFR
Wind140° at 13 kt
W.Decomp.*RWY 06: 4.4 kt HW 12.2 kt RCW
W.Rank140° ranks 10
Current wind is above 140° avg. (9.0)
Visibility9999 m
Phenomena:N/A
Clouds:Few 012 Hf
Expected CloudBase > 800 ft AGL from Temp-Dew spread
CeilingNone
Temp23°C (ISA +8)
Dew Point21°C (89% RH)
AAT22.5°C
QNH1015 hPa
Density Alt1,207 ft
Elevation13 ft
Report Wrong Elevation
Raw Report
PMDY 221056Z AUTO 14013KT 10SM FEW012 23/21 A2998 RMK AO2 SLP151
T02280206 402440211=

Extra information for PMDY:More info

Metar Taf Metar & Taf Last 4 Metars F.Rules Stats Wind Profile Meteogram Temp Stats Airport Information Weather charts Add Link Nearby VenuesMetar ALERT Operation Metar Decoded Social comments